createdAt,value
2018-07-09T00:00:22.388Z,2.63
2018-07-09T00:02:49.686Z,3.87
2018-07-09T00:05:16.982Z,2.57
2018-07-09T00:07:44.281Z,2.67
2018-07-09T00:10:12.674Z,2.50
2018-07-09T00:12:39.930Z,2.17
2018-07-09T00:15:09.958Z,2.50
2018-07-09T00:20:28.078Z,2.00
2018-07-09T00:22:55.359Z,2.50
2018-07-09T00:25:22.639Z,2.00
2018-07-09T00:27:49.943Z,2.30
2018-07-09T00:30:17.246Z,2.07
2018-07-09T00:32:44.554Z,2.23
2018-07-09T00:35:11.803Z,2.30
2018-07-09T00:37:39.040Z,2.00
2018-07-09T00:40:06.309Z,2.77
2018-07-09T00:42:33.806Z,2.63
2018-07-09T00:45:01.828Z,2.43
2018-07-09T00:47:29.862Z,2.20
2018-07-09T00:49:57.126Z,2.40
2018-07-09T00:52:24.379Z,2.30
2018-07-09T00:54:51.660Z,2.43
2018-07-09T00:57:18.930Z,2.00
2018-07-09T00:59:46.245Z,2.03
2018-07-09T01:02:13.497Z,2.00
2018-07-09T01:04:40.757Z,2.10
2018-07-09T01:07:08.039Z,2.23
2018-07-09T01:09:35.317Z,1.53
2018-07-09T01:12:10.430Z,2.50
2018-07-09T01:14:38.376Z,2.70
2018-07-09T01:17:05.697Z,2.03
2018-07-09T01:19:33.180Z,2.40
2018-07-09T01:22:00.740Z,2.50
2018-07-09T01:24:28.032Z,1.80
2018-07-09T01:26:55.340Z,2.20
2018-07-09T01:29:22.640Z,2.47
2018-07-09T01:31:49.945Z,2.23
2018-07-09T01:34:24.028Z,2.40
2018-07-09T01:36:51.291Z,2.73
2018-07-09T01:39:18.590Z,2.73
2018-07-09T01:41:45.895Z,1.93
2018-07-09T01:44:13.166Z,2.33
2018-07-09T01:46:40.419Z,1.80
2018-07-09T01:49:07.800Z,2.20
2018-07-09T01:51:35.378Z,1.80
2018-07-09T01:54:02.660Z,2.43
2018-07-09T01:56:29.995Z,1.97
2018-07-09T01:58:57.285Z,2.27
2018-07-09T02:01:24.572Z,1.97
2018-07-09T02:03:51.805Z,2.03
2018-07-09T02:06:19.069Z,2.27
2018-07-09T02:08:46.335Z,2.07
2018-07-09T02:11:13.658Z,1.87
2018-07-09T02:13:41.031Z,2.63
2018-07-09T02:16:08.281Z,2.30
2018-07-09T02:18:35.558Z,2.70
2018-07-09T02:21:02.937Z,2.60
2018-07-09T02:23:30.181Z,2.67
2018-07-09T02:25:57.447Z,2.50
2018-07-09T02:28:24.720Z,2.63
2018-07-09T02:30:51.999Z,2.83
2018-07-09T02:33:19.428Z,2.43
2018-07-09T02:35:46.690Z,2.23
2018-07-09T02:38:14.009Z,2.33
2018-07-09T02:40:41.305Z,2.77
2018-07-09T02:43:08.567Z,2.33
2018-07-09T02:45:36.160Z,2.20
2018-07-09T02:48:03.470Z,2.17
2018-07-09T02:50:30.790Z,2.53
2018-07-09T02:52:58.162Z,2.00
2018-07-09T02:55:25.539Z,2.47
2018-07-09T02:57:52.869Z,2.83
2018-07-09T03:00:20.214Z,2.33
2018-07-09T03:02:47.756Z,2.27
2018-07-09T03:05:15.130Z,2.07
2018-07-09T03:07:42.461Z,1.87
2018-07-09T03:10:09.882Z,2.33
2018-07-09T03:12:37.215Z,3.43
2018-07-09T03:15:04.652Z,2.13
2018-07-09T03:17:32.177Z,2.97
2018-07-09T03:20:00.899Z,2.17
2018-07-09T03:22:29.610Z,2.50
2018-07-09T03:24:57.979Z,2.10
2018-07-09T03:27:25.462Z,2.33
2018-07-09T03:29:53.428Z,2.40
2018-07-09T03:32:20.778Z,2.27
2018-07-09T03:34:48.106Z,2.10
2018-07-09T03:37:15.588Z,1.93
2018-07-09T03:39:42.949Z,2.33
2018-07-09T03:42:10.314Z,2.13
2018-07-09T03:44:37.957Z,2.30
2018-07-09T03:47:06.611Z,2.70
2018-07-09T03:49:33.967Z,2.43
2018-07-09T03:52:01.429Z,2.30
2018-07-09T03:54:28.778Z,1.90
2018-07-09T03:56:56.150Z,1.93
2018-07-09T03:59:23.676Z,2.30
2018-07-09T04:01:51.095Z,2.17
2018-07-09T04:04:18.965Z,2.07
2018-07-09T04:06:46.359Z,2.27
2018-07-09T04:09:13.790Z,2.83
2018-07-09T04:11:41.152Z,1.70
2018-07-09T04:14:09.127Z,1.90
2018-07-09T04:16:36.435Z,1.97
2018-07-09T04:19:05.298Z,1.77
2018-07-09T04:21:32.872Z,2.03
2018-07-09T04:24:00.143Z,1.90
2018-07-09T04:26:27.578Z,1.93
2018-07-09T04:28:54.897Z,2.03
2018-07-09T04:31:22.440Z,2.13
2018-07-09T04:33:50.774Z,1.93
2018-07-09T04:36:18.091Z,1.70
2018-07-09T04:38:46.037Z,1.97
2018-07-09T04:41:13.265Z,1.90
2018-07-09T04:43:40.610Z,2.03
2018-07-09T04:46:07.983Z,1.27
2018-07-09T04:48:35.386Z,1.53
2018-07-09T04:51:02.879Z,1.37
2018-07-09T04:53:30.279Z,1.97
2018-07-09T04:55:58.272Z,2.00
2018-07-09T04:58:25.607Z,1.60
2018-07-09T05:00:53.013Z,1.67
2018-07-09T05:03:20.354Z,1.43
2018-07-09T05:05:47.715Z,1.70
2018-07-09T05:08:15.064Z,1.23
2018-07-09T05:10:42.424Z,1.53
2018-07-09T05:13:09.936Z,1.23
2018-07-09T05:15:37.297Z,1.60
2018-07-09T05:18:06.327Z,1.40
2018-07-09T05:20:33.680Z,1.70
2018-07-09T05:23:01.039Z,1.60
2018-07-09T05:25:28.446Z,1.73
2018-07-09T05:27:55.828Z,1.80
2018-07-09T05:30:23.190Z,1.57
2018-07-09T05:32:50.548Z,1.50
2018-07-09T05:35:17.938Z,1.77
2018-07-09T05:37:46.235Z,1.67
2018-07-09T05:40:13.689Z,1.60
2018-07-09T05:42:41.229Z,1.60
2018-07-09T05:45:08.678Z,1.37
2018-07-09T05:47:36.387Z,1.53
2018-07-09T05:50:06.705Z,1.20
2018-07-09T05:52:34.063Z,1.00
2018-07-09T05:55:01.389Z,1.20
2018-07-09T05:57:28.796Z,1.37
2018-07-09T05:59:56.134Z,1.30
2018-07-09T06:02:23.520Z,1.30
2018-07-09T06:04:50.908Z,1.43
2018-07-09T06:07:18.487Z,1.17
2018-07-09T06:09:45.950Z,0.87
2018-07-09T06:12:14.271Z,1.37
2018-07-09T06:14:41.685Z,1.20
2018-07-09T06:17:09.031Z,1.10
2018-07-09T06:19:36.452Z,1.27
2018-07-09T06:22:03.889Z,1.10
2018-07-09T06:24:31.245Z,0.70
2018-07-09T06:26:58.577Z,0.97
2018-07-09T06:29:26.006Z,1.00
2018-07-09T06:31:53.439Z,0.80
2018-07-09T06:34:21.607Z,1.00
2018-07-09T06:36:49.019Z,0.80
2018-07-09T06:39:16.953Z,0.70
2018-07-09T06:41:44.386Z,1.00
2018-07-09T06:44:11.777Z,0.80
2018-07-09T06:46:40.213Z,1.17
2018-07-09T06:49:08.078Z,0.97
2018-07-09T06:51:35.475Z,0.80
2018-07-09T06:54:02.898Z,0.90
2018-07-09T06:56:30.328Z,1.23
2018-07-09T06:58:58.353Z,0.73
2018-07-09T07:01:26.431Z,1.03
2018-07-09T07:03:53.837Z,1.03
2018-07-09T07:06:21.192Z,0.70
2018-07-09T07:08:48.645Z,0.80
2018-07-09T07:11:16.041Z,0.90
2018-07-09T07:13:43.399Z,0.80
2018-07-09T07:16:10.850Z,1.03
2018-07-09T07:18:38.217Z,0.77
2018-07-09T07:21:05.831Z,0.70
2018-07-09T07:23:33.135Z,0.70
2018-07-09T07:26:00.422Z,0.90
2018-07-09T07:28:27.722Z,0.60
2018-07-09T07:30:55.110Z,0.50
2018-07-09T07:33:22.873Z,0.63
2018-07-09T07:35:50.239Z,0.57
2018-07-09T07:38:17.557Z,0.80
2018-07-09T07:40:45.627Z,0.50
2018-07-09T07:43:13.409Z,0.40
2018-07-09T07:45:40.770Z,0.63
2018-07-09T07:48:08.075Z,0.93
2018-07-09T07:50:36.260Z,0.47
2018-07-09T07:53:03.611Z,0.70
2018-07-09T07:55:30.999Z,0.33
2018-07-09T07:57:58.298Z,0.60
2018-07-09T08:00:25.642Z,0.40
2018-07-09T08:02:53.023Z,0.82
2018-07-09T08:05:20.358Z,1.25
2018-07-09T08:07:47.674Z,0.80
2018-07-09T08:10:15.068Z,0.68
2018-07-09T08:15:09.851Z,0.50
2018-07-09T08:17:37.275Z,0.80
2018-07-09T08:20:05.529Z,0.80
2018-07-09T08:22:32.955Z,0.60
2018-07-09T08:25:00.441Z,0.65
2018-07-09T08:27:27.949Z,0.70
2018-07-09T08:29:55.354Z,0.80
2018-07-09T08:32:22.849Z,0.60
2018-07-09T08:34:50.315Z,0.50
2018-07-09T08:37:17.705Z,0.80
2018-07-09T08:39:45.240Z,1.10
2018-07-09T08:42:12.619Z,1.00
2018-07-09T08:44:40.466Z,1.00
2018-07-09T08:47:07.863Z,0.88
2018-07-09T08:49:35.335Z,0.98
2018-07-09T08:52:02.848Z,1.02
2018-07-09T08:54:30.150Z,0.70
2018-07-09T08:57:10.581Z,0.93
2018-07-09T08:59:37.954Z,1.00
2018-07-09T09:02:05.924Z,1.10
2018-07-09T09:04:33.276Z,0.93
2018-07-09T09:07:00.708Z,0.85
2018-07-09T09:09:28.114Z,1.00
2018-07-09T09:11:55.492Z,0.75
2018-07-09T09:14:23.091Z,0.57
2018-07-09T09:16:50.485Z,0.72
2018-07-09T09:19:17.814Z,0.75
2018-07-09T09:21:45.963Z,0.70
2018-07-09T09:24:13.329Z,0.42
2018-07-09T09:26:40.921Z,0.50
2018-07-09T09:29:08.266Z,0.70
2018-07-09T09:31:35.739Z,0.60
2018-07-09T09:34:03.122Z,0.65
2018-07-09T09:36:30.490Z,0.53
2018-07-09T09:38:57.939Z,0.50
2018-07-09T09:41:25.747Z,0.68
2018-07-09T09:43:53.178Z,0.40
2018-07-09T09:46:20.571Z,0.60
2018-07-09T09:48:48.645Z,0.50
2018-07-09T09:51:16.010Z,0.80
2018-07-09T09:53:43.402Z,0.57
2018-07-09T09:56:10.766Z,0.70
2018-07-09T09:58:38.279Z,0.60
2018-07-09T10:01:06.043Z,0.57
2018-07-09T10:03:33.482Z,0.50
2018-07-09T10:06:01.860Z,0.40
2018-07-09T10:08:29.295Z,0.60
2018-07-09T10:10:56.705Z,0.57
2018-07-09T10:13:24.069Z,0.50
2018-07-09T10:15:51.490Z,0.50
2018-07-09T10:18:18.996Z,0.50
2018-07-09T10:20:46.334Z,0.33
2018-07-09T10:23:13.869Z,0.55
2018-07-09T10:25:41.095Z,0.70
2018-07-09T10:28:08.458Z,0.60
2018-07-09T10:30:35.768Z,0.62
2018-07-09T10:33:04.142Z,0.60
2018-07-09T10:35:32.180Z,0.60
2018-07-09T10:37:59.552Z,0.65
2018-07-09T10:40:26.884Z,0.70
2018-07-09T10:42:54.243Z,0.50
2018-07-09T10:45:22.341Z,0.50
2018-07-09T10:47:49.665Z,0.47
2018-07-09T10:50:17.009Z,0.70
2018-07-09T10:52:44.348Z,0.37
2018-07-09T10:55:11.717Z,0.55
2018-07-09T10:57:39.103Z,0.60
2018-07-09T11:00:06.558Z,0.93
2018-07-09T11:02:33.975Z,0.78
2018-07-09T11:05:01.324Z,0.53
2018-07-09T11:07:28.672Z,0.68
2018-07-09T11:09:56.110Z,0.60
2018-07-09T11:12:23.651Z,0.50
2018-07-09T11:14:51.046Z,0.70
2018-07-09T11:17:18.316Z,0.45
2018-07-09T11:19:45.649Z,0.60
2018-07-09T11:22:13.029Z,0.50
2018-07-09T11:24:40.401Z,0.80
2018-07-09T11:27:07.702Z,0.42
2018-07-09T11:29:35.147Z,0.70
2018-07-09T11:32:02.555Z,0.70
2018-07-09T11:34:29.933Z,0.40
2018-07-09T11:36:57.251Z,0.50
2018-07-09T11:39:24.713Z,0.55
2018-07-09T11:41:52.086Z,0.40
2018-07-09T11:44:19.438Z,0.30
2018-07-09T11:46:46.801Z,0.57
2018-07-09T11:49:14.142Z,0.45
2018-07-09T11:51:42.395Z,0.53
2018-07-09T11:54:09.730Z,0.62
2018-07-09T11:56:37.045Z,0.57
2018-07-09T11:59:04.954Z,0.40
2018-07-09T12:01:32.285Z,0.80
2018-07-09T12:03:59.646Z,0.53
2018-07-09T12:06:27.017Z,0.50
2018-07-09T12:08:54.382Z,0.75
2018-07-09T12:11:22.463Z,0.50
2018-07-09T12:13:49.844Z,0.60
2018-07-09T12:16:17.915Z,0.40
2018-07-09T12:18:45.309Z,0.60
2018-07-09T12:21:13.699Z,0.30
2018-07-09T12:23:47.751Z,0.60
2018-07-09T12:26:15.111Z,0.37
2018-07-09T12:28:42.655Z,0.50
2018-07-09T12:31:09.974Z,0.50
2018-07-09T12:33:37.321Z,0.60
2018-07-09T12:36:06.008Z,0.50
2018-07-09T12:38:33.447Z,0.50
2018-07-09T12:41:00.883Z,0.60
2018-07-09T12:43:28.325Z,0.70
2018-07-09T12:45:56.358Z,0.47
2018-07-09T12:48:23.727Z,0.60
2018-07-09T12:50:51.110Z,0.60
2018-07-09T12:53:18.451Z,0.62
2018-07-09T12:55:45.902Z,0.50
2018-07-09T12:58:13.345Z,0.60
2018-07-09T13:00:40.817Z,0.88
2018-07-09T13:03:08.384Z,0.70
2018-07-09T13:05:35.882Z,1.07
2018-07-09T13:08:03.254Z,0.70
2018-07-09T13:10:30.858Z,0.68
2018-07-09T13:12:58.255Z,0.68
2018-07-09T13:15:25.587Z,0.53
2018-07-09T13:17:53.044Z,0.80
2018-07-09T13:20:20.550Z,0.70
2018-07-09T13:22:48.896Z,0.80
2018-07-09T13:25:16.253Z,1.05
2018-07-09T13:27:43.644Z,0.75
2018-07-09T13:30:10.967Z,0.82
2018-07-09T13:32:38.903Z,0.50
2018-07-09T13:35:06.827Z,0.60
2018-07-09T13:37:34.144Z,0.75
2018-07-09T13:40:01.480Z,0.70
2018-07-09T13:42:28.859Z,0.90
2018-07-09T13:44:57.942Z,0.70
2018-07-09T13:47:25.594Z,0.70
2018-07-09T13:49:53.401Z,0.90
2018-07-09T13:52:21.019Z,0.88
2018-07-09T13:54:48.397Z,0.93
2018-07-09T13:57:15.759Z,0.75
2018-07-09T13:59:43.113Z,0.75
2018-07-09T14:02:10.540Z,0.98
2018-07-09T14:04:38.704Z,1.02
2018-07-09T14:07:08.279Z,0.82
2018-07-09T14:09:35.635Z,0.70
2018-07-09T14:12:03.011Z,1.00
2018-07-09T14:14:30.455Z,0.90
2018-07-09T14:16:57.842Z,1.02
2018-07-09T14:20:35.515Z,1.25
2018-07-09T14:23:03.445Z,1.25
2018-07-09T14:25:31.424Z,1.47
2018-07-09T14:27:58.746Z,1.37
2018-07-09T14:30:26.134Z,1.20
2018-07-09T14:32:53.479Z,1.10
2018-07-09T14:35:20.836Z,1.30
2018-07-09T14:37:48.298Z,1.10
2018-07-09T14:40:15.606Z,1.25
2018-07-09T14:42:43.090Z,1.00
2018-07-09T14:45:11.040Z,0.90
2018-07-09T14:47:39.097Z,1.15
2018-07-09T14:50:08.618Z,1.07
2018-07-09T14:52:36.031Z,0.90
2018-07-09T14:55:03.521Z,1.07
2018-07-09T14:57:30.875Z,0.88
2018-07-09T14:59:58.282Z,0.90
2018-07-09T15:02:25.672Z,1.17
2018-07-09T15:04:53.193Z,1.10
2018-07-09T15:07:20.538Z,1.10
2018-07-09T15:09:47.938Z,1.25
2018-07-09T15:12:15.299Z,1.10
2018-07-09T15:14:42.634Z,1.00
2018-07-09T15:17:10.357Z,0.98
2018-07-09T15:19:37.779Z,1.15
2018-07-09T15:22:06.374Z,1.10
2018-07-09T15:24:33.797Z,1.05
2018-07-09T15:27:02.000Z,0.80
2018-07-09T15:29:29.342Z,1.20
2018-07-09T15:32:08.708Z,1.40
2018-07-09T15:34:36.417Z,1.02
2018-07-09T15:37:04.380Z,0.80
2018-07-09T15:39:31.758Z,0.80
2018-07-09T15:41:59.206Z,0.90
2018-07-09T15:44:26.640Z,1.00
2018-07-09T15:46:54.097Z,1.03
2018-07-09T15:49:21.545Z,1.60
2018-07-09T15:51:49.646Z,1.10
2018-07-09T15:54:17.034Z,1.17
2018-07-09T15:56:44.436Z,1.07
2018-07-09T15:59:11.812Z,1.33
2018-07-09T16:01:39.163Z,1.70
2018-07-09T16:04:06.976Z,1.20
2018-07-09T16:06:34.357Z,1.40
2018-07-09T16:09:01.814Z,1.13
2018-07-09T16:11:29.207Z,1.40
2018-07-09T16:13:57.177Z,1.57
2018-07-09T16:16:25.803Z,1.73
2018-07-09T16:18:53.186Z,1.40
2018-07-09T16:21:20.799Z,1.67
2018-07-09T16:23:48.174Z,1.80
2018-07-09T16:26:15.533Z,1.43
2018-07-09T16:28:42.969Z,1.60
2018-07-09T16:31:10.284Z,1.60
2018-07-09T16:33:37.639Z,1.73
2018-07-09T16:36:05.128Z,1.50
2018-07-09T16:38:32.496Z,1.47
2018-07-09T16:41:00.254Z,1.40
2018-07-09T16:43:28.653Z,1.93
2018-07-09T16:45:57.146Z,1.37
2018-07-09T16:48:25.285Z,1.30
2018-07-09T16:50:53.309Z,1.77
2018-07-09T16:53:21.113Z,1.37
2018-07-09T16:55:49.302Z,1.50
2018-07-09T16:58:17.508Z,1.40
2018-07-09T17:00:45.578Z,0.90
2018-07-09T17:03:14.212Z,1.13
2018-07-09T17:05:42.609Z,0.90
2018-07-09T17:08:11.891Z,1.50
2018-07-09T17:10:39.976Z,0.60
2018-07-09T17:13:07.801Z,0.90
2018-07-09T17:15:36.126Z,1.13
2018-07-09T17:18:05.504Z,1.10
2018-07-09T17:20:33.489Z,1.00
2018-07-09T17:23:02.104Z,1.00
2018-07-09T17:25:30.372Z,0.93
2018-07-09T17:27:59.898Z,1.10
2018-07-09T17:30:28.861Z,1.50
2018-07-09T17:32:57.040Z,1.27
2018-07-09T17:35:25.279Z,1.73
2018-07-09T17:37:54.146Z,1.60
2018-07-09T17:40:22.330Z,1.30
2018-07-09T17:42:50.192Z,1.67
2018-07-09T17:45:17.677Z,1.33
2018-07-09T17:47:46.083Z,1.33
2018-07-09T17:50:14.121Z,1.53
2018-07-09T17:52:42.754Z,1.80
2018-07-09T17:55:10.856Z,1.60
2018-07-09T17:57:38.454Z,1.80
2018-07-09T18:00:07.071Z,1.57
2018-07-09T18:02:35.209Z,1.30
2018-07-09T18:05:04.559Z,2.70
2018-07-09T18:07:34.178Z,1.73
2018-07-09T18:10:02.496Z,1.90
2018-07-09T18:12:32.145Z,2.00
2018-07-09T18:15:00.708Z,1.70
2018-07-09T18:17:31.663Z,1.90
2018-07-09T18:20:00.414Z,1.63
2018-07-09T18:22:36.079Z,2.10
2018-07-09T18:25:13.792Z,1.80
2018-07-09T18:27:49.571Z,1.50
2018-07-09T18:30:23.814Z,1.70
2018-07-09T18:32:52.596Z,1.70
2018-07-09T18:35:21.824Z,2.53
2018-07-09T18:37:51.895Z,2.00
2018-07-09T18:40:22.233Z,2.17
2018-07-09T18:42:54.807Z,1.70
2018-07-09T18:45:24.054Z,1.53
2018-07-09T18:47:54.537Z,2.13
2018-07-09T18:50:22.139Z,1.80
2018-07-09T18:52:51.172Z,1.60
2018-07-09T18:55:19.342Z,2.20
2018-07-09T18:57:47.922Z,1.80
2018-07-09T19:00:15.508Z,1.90
2018-07-09T19:02:44.541Z,2.10
2018-07-09T19:05:13.898Z,1.67
2018-07-09T19:07:43.002Z,1.77
2018-07-09T19:10:12.152Z,2.80
2018-07-09T19:12:42.347Z,2.00
2018-07-09T19:15:10.111Z,2.00
2018-07-09T19:18:04.572Z,1.93
2018-07-09T19:20:43.490Z,1.87
2018-07-09T19:23:10.726Z,2.23
2018-07-09T19:25:37.791Z,1.93
2018-07-09T19:28:06.222Z,2.10
2018-07-09T19:30:32.965Z,1.90
2018-07-09T19:33:00.091Z,1.97
2018-07-09T19:35:27.900Z,2.10
2018-07-09T19:37:54.776Z,2.40
2018-07-09T19:40:21.204Z,2.03
2018-07-09T19:42:47.972Z,2.07
2018-07-09T19:45:21.406Z,1.77
2018-07-09T19:47:47.923Z,1.67
2018-07-09T19:50:14.645Z,1.87
2018-07-09T19:52:40.945Z,2.17
2018-07-09T19:55:11.717Z,1.70
2018-07-09T19:57:38.742Z,2.17
2018-07-09T20:00:05.145Z,2.53
2018-07-09T20:02:31.584Z,2.23
2018-07-09T20:04:59.078Z,2.17
2018-07-09T20:07:25.495Z,2.33
2018-07-09T20:09:57.395Z,2.10
2018-07-09T20:12:29.335Z,2.03
2018-07-09T20:15:01.652Z,2.20
2018-07-09T20:17:29.484Z,2.23
2018-07-09T20:19:55.937Z,1.90
2018-07-09T20:22:22.329Z,2.20
2018-07-09T20:24:48.630Z,2.07
2018-07-09T20:27:14.872Z,1.87
2018-07-09T20:29:41.118Z,2.23
2018-07-09T20:32:07.518Z,2.20
2018-07-09T20:34:33.751Z,2.03
2018-07-09T20:36:59.994Z,1.77
2018-07-09T20:39:26.223Z,2.13
2018-07-09T20:41:52.462Z,2.00
2018-07-09T20:44:18.685Z,2.30
2018-07-09T20:46:44.949Z,2.87
2018-07-09T20:49:11.169Z,2.20
2018-07-09T20:51:37.425Z,2.07
2018-07-09T20:54:03.705Z,2.30
2018-07-09T20:56:29.965Z,2.07
2018-07-09T20:58:56.206Z,2.40
2018-07-09T21:01:22.467Z,2.10
2018-07-09T21:03:53.259Z,2.10
2018-07-09T21:06:19.514Z,1.97
2018-07-09T21:08:46.151Z,2.20
2018-07-09T21:11:12.419Z,2.10
2018-07-09T21:13:38.647Z,1.63
2018-07-09T21:16:05.093Z,1.60
2018-07-09T21:18:32.151Z,2.60
2018-07-09T21:20:58.406Z,1.70
2018-07-09T21:23:24.622Z,1.90
2018-07-09T21:25:50.867Z,2.40
2018-07-09T21:28:17.101Z,1.97
2018-07-09T21:30:43.335Z,1.77
2018-07-09T21:33:09.595Z,2.00
2018-07-09T21:35:35.863Z,1.73
2018-07-09T21:38:02.151Z,1.90
2018-07-09T21:40:28.400Z,2.00
2018-07-09T21:42:54.675Z,1.70
2018-07-09T21:45:20.910Z,2.10
2018-07-09T21:47:47.156Z,2.30
2018-07-09T21:50:13.390Z,1.80
2018-07-09T21:52:39.645Z,1.97
2018-07-09T21:55:06.467Z,2.20
2018-07-09T21:57:32.729Z,1.73
2018-07-09T21:59:58.978Z,1.80
2018-07-09T22:02:25.290Z,1.50
2018-07-09T22:04:51.538Z,1.70
2018-07-09T22:07:17.794Z,1.70
2018-07-09T22:09:44.062Z,1.57
2018-07-09T22:12:10.334Z,1.70
2018-07-09T22:14:36.573Z,1.27
2018-07-09T22:17:02.830Z,1.30
2018-07-09T22:19:29.071Z,1.20
2018-07-09T22:21:55.315Z,1.23
2018-07-09T22:24:21.592Z,1.13
2018-07-09T22:26:47.837Z,1.43
2018-07-09T22:29:14.082Z,1.30
2018-07-09T22:31:41.365Z,1.10
2018-07-09T22:34:08.615Z,1.33
2018-07-09T22:36:35.915Z,1.00
2018-07-09T22:39:04.153Z,1.20
2018-07-09T22:41:31.405Z,1.53
2018-07-09T22:44:10.178Z,0.90
2018-07-09T22:46:37.453Z,1.10
2018-07-09T22:49:05.450Z,1.27
2018-07-09T22:51:32.699Z,1.17
2018-07-09T22:53:59.950Z,1.10
2018-07-09T22:56:27.206Z,1.40
2018-07-09T22:58:54.460Z,1.37
2018-07-09T23:01:21.715Z,1.40
2018-07-09T23:03:48.973Z,1.30
2018-07-09T23:06:16.213Z,1.27
2018-07-09T23:08:43.509Z,1.13
2018-07-09T23:11:22.335Z,1.47
2018-07-09T23:17:08.761Z,1.40
2018-07-09T23:21:55.112Z,1.03
2018-07-09T23:24:21.377Z,1.10
2018-07-09T23:26:47.638Z,1.30
2018-07-09T23:29:13.903Z,1.20
2018-07-09T23:31:40.155Z,1.13
2018-07-09T23:34:06.441Z,1.20
2018-07-09T23:36:32.731Z,1.30
2018-07-09T23:38:59.023Z,1.50
2018-07-09T23:41:25.968Z,1.60
2018-07-09T23:43:52.225Z,1.20
2018-07-09T23:46:18.457Z,1.60
2018-07-09T23:48:44.680Z,1.50
2018-07-09T23:51:10.959Z,1.70
2018-07-09T23:53:37.195Z,1.30
2018-07-09T23:57:23.706Z,1.67
